createdAt,value
2022-10-26T00:01:13.252Z,101366.84
2022-10-26T00:06:19.249Z,101394.16
2022-10-26T00:11:24.361Z,101377.06
2022-10-26T00:16:30.586Z,101356.03
2022-10-26T00:21:33.001Z,101359.78
2022-10-26T00:26:33.530Z,101351.16
2022-10-26T00:31:34.827Z,101375.00
2022-10-26T00:36:38.711Z,101379.91
2022-10-26T00:41:38.405Z,101369.59
2022-10-26T00:46:41.087Z,101390.19
2022-10-26T00:51:54.215Z,101390.84
2022-10-26T00:56:57.365Z,101396.66
2022-10-26T01:01:57.642Z,101417.66
2022-10-26T01:06:58.921Z,101406.09
2022-10-26T01:12:01.509Z,101380.69
2022-10-26T01:17:06.921Z,101406.75
2022-10-26T01:22:57.530Z,101405.13
2022-10-26T01:28:36.345Z,101373.50
2022-10-26T01:39:22.760Z,101401.09
2022-10-26T01:44:46.523Z,101384.66
2022-10-26T01:49:58.685Z,101422.72
2022-10-26T01:55:41.279Z,101417.28
2022-10-26T02:00:47.504Z,101390.16
2022-10-26T02:06:13.710Z,101399.91
2022-10-26T02:11:33.714Z,101421.06
2022-10-26T02:16:44.201Z,101397.72
2022-10-26T02:21:51.005Z,101403.97
2022-10-26T02:26:53.422Z,101380.66
2022-10-26T02:31:56.054Z,101393.88
2022-10-26T02:36:56.064Z,101427.69
2022-10-26T02:41:56.215Z,101409.16
2022-10-26T02:46:59.005Z,101388.28
2022-10-26T02:52:06.801Z,101425.13
2022-10-26T02:57:24.329Z,101435.72
2022-10-26T03:02:29.498Z,101403.97
2022-10-26T03:07:41.886Z,101388.59
2022-10-26T03:12:43.315Z,101427.59
2022-10-26T03:17:44.002Z,101415.84
2022-10-26T03:22:50.246Z,101434.16
2022-10-26T03:27:59.743Z,101422.03
2022-10-26T03:32:58.005Z,101447.84
2022-10-26T03:38:03.264Z,101396.97
2022-10-26T03:43:02.453Z,101399.44
2022-10-26T03:48:12.562Z,101455.41
2022-10-26T03:53:38.764Z,101443.31
2022-10-26T03:58:39.775Z,101436.97
2022-10-26T04:03:44.649Z,101464.97
2022-10-26T04:08:50.859Z,101465.00
2022-10-26T04:13:51.953Z,101486.06
2022-10-26T04:18:54.370Z,101476.88
2022-10-26T04:23:59.534Z,101455.91
2022-10-26T04:29:03.111Z,101458.31
2022-10-26T04:34:05.212Z,101521.28
2022-10-26T04:39:06.223Z,101463.28
2022-10-26T04:44:09.345Z,101497.25
2022-10-26T04:49:08.820Z,101502.47
2022-10-26T04:54:08.359Z,101486.41
2022-10-26T04:59:11.876Z,101472.47
2022-10-26T05:04:21.875Z,101489.84
2022-10-26T05:09:22.822Z,101495.41
2022-10-26T05:14:25.998Z,101495.75
2022-10-26T05:19:41.796Z,101531.94
2022-10-26T05:24:56.836Z,101541.13
2022-10-26T05:30:03.652Z,101536.25
2022-10-26T05:35:05.617Z,101537.84
2022-10-26T05:40:04.455Z,101589.06
2022-10-26T05:45:10.244Z,101533.63
2022-10-26T05:50:09.903Z,101576.25
2022-10-26T05:55:19.785Z,101561.00
2022-10-26T06:00:25.880Z,101550.38
2022-10-26T06:05:30.604Z,101553.81
2022-10-26T06:10:31.753Z,101604.97
2022-10-26T06:15:41.180Z,101588.56
2022-10-26T06:20:52.561Z,101628.09
2022-10-26T06:26:27.918Z,101636.63
2022-10-26T06:31:44.342Z,101597.94
2022-10-26T06:36:51.654Z,101622.16
2022-10-26T06:42:04.198Z,101645.75
2022-10-26T06:47:43.429Z,101651.66
2022-10-26T06:53:27.736Z,101616.84
2022-10-26T06:58:46.779Z,101619.91
2022-10-26T07:03:59.187Z,101664.66
2022-10-26T07:09:03.669Z,101649.75
2022-10-26T07:14:01.429Z,101652.41
2022-10-26T07:19:14.691Z,101669.75
2022-10-26T07:24:14.896Z,101635.13
2022-10-26T07:29:21.867Z,101633.56
2022-10-26T07:34:32.593Z,101649.13
2022-10-26T07:39:36.600Z,101618.03
2022-10-26T07:45:07.116Z,101671.38
2022-10-26T07:50:16.399Z,101631.50
2022-10-26T07:55:31.646Z,101651.69
2022-10-26T08:00:47.965Z,101632.47
2022-10-26T08:05:56.966Z,101648.19
2022-10-26T08:11:02.722Z,101628.19
2022-10-26T08:16:03.746Z,101611.59
2022-10-26T08:21:15.611Z,101629.06
2022-10-26T08:26:36.859Z,101630.44
2022-10-26T08:31:35.984Z,101614.91
2022-10-26T08:36:34.282Z,101632.34
2022-10-26T08:41:57.738Z,101660.97
2022-10-26T08:47:20.387Z,101622.84
2022-10-26T08:52:20.058Z,101679.00
2022-10-26T08:58:01.999Z,101618.09
2022-10-26T09:03:09.170Z,101623.56
2022-10-26T09:08:41.411Z,101617.41
2022-10-26T09:13:58.894Z,101628.19
2022-10-26T09:19:20.500Z,101659.59
2022-10-26T09:24:33.143Z,101639.78
2022-10-26T09:29:52.478Z,101619.94
2022-10-26T09:40:28.768Z,101616.81
2022-10-26T09:45:54.594Z,101646.00
2022-10-26T09:51:06.335Z,101634.03
2022-10-26T09:56:10.201Z,101654.44
2022-10-26T10:01:42.634Z,101661.84
2022-10-26T10:06:56.013Z,101623.34
2022-10-26T10:12:12.824Z,101636.44
2022-10-26T10:18:15.514Z,101613.22
2022-10-26T10:24:15.919Z,101595.75
2022-10-26T10:36:44.497Z,101593.09
2022-10-26T10:42:12.007Z,101635.28
2022-10-26T10:47:34.336Z,101575.63
2022-10-26T10:53:27.442Z,101584.53
2022-10-26T10:59:57.787Z,101579.03
2022-10-26T11:05:40.251Z,101582.88
2022-10-26T11:10:47.551Z,101585.25
2022-10-26T11:16:03.572Z,101577.09
2022-10-26T11:21:34.278Z,101617.13
2022-10-26T11:27:19.229Z,101590.22
2022-10-26T11:32:42.776Z,101602.91
2022-10-26T11:38:45.554Z,101607.38
2022-10-26T11:44:52.715Z,101575.56
2022-10-26T11:50:12.201Z,101561.31
2022-10-26T11:55:29.803Z,101599.84
2022-10-26T12:00:30.807Z,101557.09
2022-10-26T12:05:54.369Z,101577.13
2022-10-26T12:11:17.513Z,101606.56
2022-10-26T12:16:29.178Z,101603.13
2022-10-26T12:21:32.173Z,101584.59
2022-10-26T12:27:45.273Z,101551.13
2022-10-26T12:32:30.810Z,101593.28
2022-10-26T12:37:36.824Z,101602.00
2022-10-26T12:42:48.143Z,101561.91
2022-10-26T12:48:15.610Z,101602.75
2022-10-26T12:53:42.881Z,101565.84
2022-10-26T12:59:27.733Z,101562.81
2022-10-26T13:05:39.472Z,101600.34
2022-10-26T13:10:23.361Z,101550.50
2022-10-26T13:15:22.881Z,101606.81
2022-10-26T13:20:26.266Z,101585.56
2022-10-26T13:25:29.554Z,101552.41
2022-10-26T13:30:33.426Z,101595.25
2022-10-26T13:35:33.470Z,101564.97
2022-10-26T13:40:32.617Z,101576.91
2022-10-26T13:45:41.416Z,101570.25
2022-10-26T13:50:55.661Z,101576.47
2022-10-26T13:56:05.033Z,101602.47
2022-10-26T14:01:10.386Z,101617.06
2022-10-26T14:06:33.209Z,101590.91
2022-10-26T14:11:43.979Z,101580.78
2022-10-26T14:16:48.590Z,101584.94
2022-10-26T14:21:50.437Z,101598.63
2022-10-26T14:26:49.857Z,101612.41
2022-10-26T14:31:50.289Z,101584.00
2022-10-26T14:36:52.247Z,101580.69
2022-10-26T14:42:00.186Z,101625.72
2022-10-26T14:47:01.013Z,101589.63
2022-10-26T14:52:09.052Z,101617.38
2022-10-26T14:57:36.352Z,101620.91
2022-10-26T15:02:36.076Z,101624.41
2022-10-26T15:07:37.871Z,101614.47
2022-10-26T15:12:37.545Z,101650.16
2022-10-26T15:17:39.007Z,101634.25
2022-10-26T15:22:46.343Z,101632.84
2022-10-26T15:27:45.162Z,101663.38
2022-10-26T15:32:45.687Z,101660.72
2022-10-26T15:37:45.667Z,101673.72
2022-10-26T15:42:49.769Z,101652.50
2022-10-26T15:47:50.343Z,101659.81
2022-10-26T15:52:52.223Z,101690.78
2022-10-26T15:58:04.391Z,101645.00
2022-10-26T16:03:05.794Z,101675.97
2022-10-26T16:08:06.600Z,101668.34
2022-10-26T16:13:30.907Z,101681.53
2022-10-26T16:18:32.557Z,101678.38
2022-10-26T16:23:35.780Z,101671.78
2022-10-26T16:28:34.873Z,101691.69
2022-10-26T16:33:38.061Z,101706.06
2022-10-26T16:38:37.621Z,101714.72
2022-10-26T16:43:40.886Z,101698.50
2022-10-26T16:48:40.672Z,101708.94
2022-10-26T16:53:41.999Z,101684.97
2022-10-26T16:58:43.927Z,101732.72
2022-10-26T17:03:46.004Z,101714.00
2022-10-26T17:08:45.405Z,101726.94
2022-10-26T17:13:48.126Z,101747.66
2022-10-26T17:18:47.753Z,101728.78
2022-10-26T17:23:50.816Z,101730.44
2022-10-26T17:28:57.220Z,101711.31
2022-10-26T17:34:16.897Z,101757.44
2022-10-26T17:39:43.492Z,101724.88
2022-10-26T17:45:13.990Z,101772.09
2022-10-26T17:56:19.946Z,101785.63
2022-10-26T18:01:30.459Z,101727.81
2022-10-26T18:06:40.698Z,101755.06
2022-10-26T18:11:59.487Z,101744.13
2022-10-26T18:17:19.273Z,101737.47
2022-10-26T18:22:30.512Z,101760.84
2022-10-26T18:27:32.607Z,101772.69
2022-10-26T18:32:42.408Z,101773.47
2022-10-26T18:37:45.368Z,101786.56
2022-10-26T18:42:50.015Z,101784.72
2022-10-26T18:53:22.555Z,101838.66
2022-10-26T18:58:47.283Z,101813.09
2022-10-26T19:04:00.166Z,101830.84
2022-10-26T19:09:19.871Z,101805.44
2022-10-26T19:14:36.364Z,101805.63
2022-10-26T19:19:54.967Z,101815.00
2022-10-26T19:25:07.861Z,101847.53
2022-10-26T19:30:25.143Z,101821.53
2022-10-26T19:35:31.674Z,101824.78
2022-10-26T19:40:48.507Z,101845.47
2022-10-26T19:45:55.853Z,101861.09
2022-10-26T19:51:12.764Z,101856.78
2022-10-26T19:56:23.895Z,101832.69
2022-10-26T20:01:41.906Z,101867.19
2022-10-26T20:06:44.537Z,101905.81
2022-10-26T20:12:01.169Z,101866.00
2022-10-26T20:17:10.004Z,101891.16
2022-10-26T20:22:23.900Z,101915.16
2022-10-26T20:27:28.290Z,101914.31
2022-10-26T20:32:26.986Z,101913.16
2022-10-26T20:37:30.296Z,101940.97
2022-10-26T20:42:33.399Z,101890.78
2022-10-26T20:47:31.998Z,101899.66
2022-10-26T20:53:05.213Z,101888.59
2022-10-26T20:58:57.541Z,101894.16
2022-10-26T21:04:02.876Z,101930.97
2022-10-26T21:09:09.853Z,101948.22
2022-10-26T21:14:12.843Z,101954.16
2022-10-26T21:19:13.711Z,101910.53
2022-10-26T21:24:50.106Z,101947.66
2022-10-26T21:29:58.896Z,101966.41
2022-10-26T21:35:37.199Z,101967.13
2022-10-26T21:40:49.233Z,101922.47
2022-10-26T21:51:52.817Z,101926.09
2022-10-26T22:02:26.865Z,101970.22
2022-10-26T22:07:34.506Z,101984.69
2022-10-26T22:12:52.269Z,101963.56
2022-10-26T22:17:58.068Z,102004.47
2022-10-26T22:23:13.772Z,101981.72
2022-10-26T22:28:38.556Z,101961.00
2022-10-26T22:34:12.210Z,101978.16
2022-10-26T22:39:31.243Z,101999.78
2022-10-26T22:44:41.091Z,101999.25
2022-10-26T22:49:49.203Z,101999.47
2022-10-26T22:55:03.643Z,102020.97
2022-10-26T23:00:06.895Z,101988.50
2022-10-26T23:05:10.029Z,101997.78
2022-10-26T23:10:20.009Z,101995.16
2022-10-26T23:15:23.231Z,101985.28
2022-10-26T23:20:37.687Z,101956.78
2022-10-26T23:25:41.145Z,101946.13
2022-10-26T23:30:42.835Z,101983.47
2022-10-26T23:35:56.692Z,101998.16
2022-10-26T23:40:58.769Z,101997.16
2022-10-26T23:46:07.737Z,101989.66
2022-10-26T23:51:10.370Z,101988.53
2022-10-26T23:56:13.633Z,101965.03
